createdAt,value
2023-01-13T00:01:38.435Z,13.10
2023-01-13T00:04:06.981Z,13.23
2023-01-13T00:06:35.426Z,12.13
2023-01-13T00:09:04.571Z,12.83
2023-01-13T00:11:33.060Z,12.13
2023-01-13T00:14:01.552Z,12.27
2023-01-13T00:16:30.122Z,13.57
2023-01-13T00:18:59.923Z,13.30
2023-01-13T00:21:28.342Z,12.07
2023-01-13T00:23:56.947Z,12.93
2023-01-13T00:26:26.937Z,13.60
2023-01-13T00:28:58.682Z,13.07
2023-01-13T00:31:28.032Z,13.17
2023-01-13T00:33:59.382Z,12.63
2023-01-13T00:36:31.569Z,14.10
2023-01-13T00:39:00.618Z,13.53
2023-01-13T00:41:49.285Z,14.50
2023-01-13T00:44:16.845Z,15.50
2023-01-13T00:46:45.308Z,15.40
2023-01-13T00:49:15.199Z,18.77
2023-01-13T00:51:43.646Z,18.97
2023-01-13T00:54:12.083Z,19.57
2023-01-13T00:56:41.433Z,17.20
2023-01-13T00:59:13.828Z,16.30
2023-01-13T01:01:42.907Z,15.20
2023-01-13T01:04:12.206Z,14.83
2023-01-13T01:06:42.638Z,15.23
2023-01-13T01:09:15.631Z,15.33
2023-01-13T01:11:45.068Z,16.10
2023-01-13T01:14:15.620Z,15.00
2023-01-13T01:16:44.040Z,15.43
2023-01-13T01:19:14.998Z,16.00
2023-01-13T01:21:44.842Z,15.40
2023-01-13T01:24:13.308Z,14.73
2023-01-13T01:26:43.863Z,16.10
2023-01-13T01:29:15.258Z,14.60
2023-01-13T01:31:44.696Z,15.27
2023-01-13T01:34:13.383Z,15.70
2023-01-13T01:36:42.200Z,15.97
2023-01-13T01:39:12.393Z,16.60
2023-01-13T01:42:00.830Z,16.50
2023-01-13T01:44:53.558Z,16.67
2023-01-13T01:47:23.528Z,17.20
2023-01-13T01:49:52.418Z,17.50
2023-01-13T01:52:27.275Z,19.23
2023-01-13T01:55:01.447Z,18.20
2023-01-13T01:57:35.616Z,16.50
2023-01-13T02:00:06.676Z,17.57
2023-01-13T02:02:41.080Z,20.07
2023-01-13T02:05:12.915Z,20.33
2023-01-13T02:07:44.181Z,21.07
2023-01-13T02:10:16.433Z,20.13
2023-01-13T02:12:45.190Z,22.73
2023-01-13T02:15:16.326Z,22.40
2023-01-13T02:18:06.814Z,20.13
2023-01-13T02:21:13.542Z,19.77
2023-01-13T02:24:28.082Z,19.73
2023-01-13T02:27:25.191Z,20.27
2023-01-13T02:30:25.173Z,21.00
2023-01-13T02:33:04.290Z,20.13
2023-01-13T02:35:39.025Z,20.17
2023-01-13T02:38:09.587Z,19.17
2023-01-13T02:40:42.095Z,18.93
2023-01-13T02:43:37.220Z,15.13
2023-01-13T02:46:11.481Z,14.93
2023-01-13T02:48:41.712Z,14.40
2023-01-13T02:51:14.934Z,14.83
2023-01-13T02:53:47.311Z,14.87
2023-01-13T02:56:17.416Z,19.10
2023-01-13T02:58:48.121Z,17.97
2023-01-13T03:01:18.775Z,19.80
2023-01-13T03:03:47.317Z,18.80
2023-01-13T03:06:31.089Z,20.80
2023-01-13T03:09:05.542Z,20.53
2023-01-13T03:11:40.465Z,22.73
2023-01-13T03:14:21.961Z,20.50
2023-01-13T03:17:06.272Z,25.90
2023-01-13T03:19:42.802Z,26.87
2023-01-13T03:22:20.226Z,22.80
2023-01-13T03:24:54.176Z,25.63
2023-01-13T03:27:27.152Z,24.33
2023-01-13T03:30:00.091Z,25.43
2023-01-13T03:32:34.927Z,24.30
2023-01-13T03:35:12.754Z,26.77
2023-01-13T03:37:44.932Z,25.43
2023-01-13T03:40:20.971Z,24.77
2023-01-13T03:43:09.687Z,25.53
2023-01-13T03:45:42.344Z,22.50
2023-01-13T03:48:18.770Z,23.40
2023-01-13T03:50:50.864Z,23.03
2023-01-13T03:53:23.282Z,25.23
2023-01-13T03:55:56.932Z,22.43
2023-01-13T03:58:31.918Z,24.80
2023-01-13T04:01:06.545Z,25.03
2023-01-13T04:03:41.250Z,25.70
2023-01-13T04:06:17.781Z,25.70
2023-01-13T04:08:52.292Z,24.33
2023-01-13T04:11:29.251Z,25.60
2023-01-13T04:14:01.047Z,26.77
2023-01-13T04:16:29.727Z,25.30
2023-01-13T04:19:02.410Z,25.30
2023-01-13T04:21:31.862Z,25.80
2023-01-13T04:24:02.845Z,25.97
2023-01-13T04:26:31.281Z,25.30
2023-01-13T04:28:59.733Z,26.53
2023-01-13T04:31:30.951Z,27.20
2023-01-13T04:34:00.320Z,27.07
2023-01-13T04:36:30.172Z,28.70
2023-01-13T04:38:59.107Z,27.77
2023-01-13T04:41:27.575Z,26.07
2023-01-13T04:43:56.065Z,27.07
2023-01-13T04:46:24.539Z,24.90
2023-01-13T04:48:53.020Z,25.73
2023-01-13T04:51:24.428Z,25.60
2023-01-13T04:53:57.070Z,26.10
2023-01-13T04:56:28.189Z,25.80
2023-01-13T04:58:56.652Z,25.20
2023-01-13T05:01:27.950Z,23.97
2023-01-13T05:03:56.426Z,25.87
2023-01-13T05:06:24.842Z,24.40
2023-01-13T05:08:54.627Z,23.83
2023-01-13T05:11:43.421Z,23.00
2023-01-13T05:14:29.264Z,18.23
2023-01-13T05:17:04.296Z,18.17
2023-01-13T05:19:34.812Z,17.20
2023-01-13T05:22:21.557Z,14.53
2023-01-13T05:25:10.580Z,15.57
2023-01-13T05:27:39.022Z,16.73
2023-01-13T05:30:08.756Z,19.30
2023-01-13T05:32:37.399Z,19.70
2023-01-13T05:35:06.383Z,21.57
2023-01-13T05:37:34.904Z,21.20
2023-01-13T05:40:23.058Z,22.00
2023-01-13T05:43:20.039Z,21.97
2023-01-13T05:45:50.279Z,22.13
2023-01-13T05:48:20.214Z,22.60
2023-01-13T05:50:51.381Z,22.40
2023-01-13T05:53:20.055Z,23.13
2023-01-13T05:55:50.544Z,23.60
2023-01-13T05:58:20.616Z,23.27
2023-01-13T06:00:49.403Z,23.03
2023-01-13T06:03:20.425Z,23.40
2023-01-13T06:05:51.555Z,25.77
2023-01-13T06:08:20.062Z,23.87
2023-01-13T06:10:49.848Z,25.40
2023-01-13T06:13:18.292Z,24.63
2023-01-13T06:15:46.779Z,24.77
2023-01-13T06:18:15.387Z,25.80
2023-01-13T06:20:44.033Z,27.07
2023-01-13T06:23:15.976Z,26.70
2023-01-13T06:25:52.793Z,27.70
2023-01-13T06:28:21.273Z,25.90
2023-01-13T06:30:57.113Z,25.47
2023-01-13T06:33:30.085Z,27.30
2023-01-13T06:36:01.283Z,29.43
2023-01-13T06:38:31.817Z,27.03
2023-01-13T06:41:01.708Z,25.70
2023-01-13T06:43:29.289Z,26.63
2023-01-13T06:45:58.128Z,26.73
2023-01-13T06:48:35.719Z,27.00
2023-01-13T06:51:04.787Z,26.70
2023-01-13T06:53:33.219Z,25.53
2023-01-13T06:56:03.131Z,27.40
2023-01-13T06:58:31.532Z,29.13
2023-01-13T07:01:01.888Z,28.23
2023-01-13T07:03:30.415Z,28.40
2023-01-13T07:05:58.888Z,27.53
2023-01-13T07:08:27.370Z,26.50
2023-01-13T07:10:56.291Z,25.43
2023-01-13T07:13:43.810Z,25.17
2023-01-13T07:16:13.887Z,26.07
2023-01-13T07:18:42.398Z,25.53
2023-01-13T07:21:13.343Z,26.33
2023-01-13T07:23:42.931Z,27.07
2023-01-13T07:26:14.191Z,26.67
2023-01-13T07:28:47.054Z,28.00
2023-01-13T07:31:17.951Z,26.60
2023-01-13T07:33:46.664Z,24.10
2023-01-13T07:36:16.156Z,23.33
2023-01-13T07:38:45.338Z,21.80
2023-01-13T07:41:32.166Z,25.27
2023-01-13T07:44:05.020Z,25.97
2023-01-13T07:46:34.285Z,25.47
2023-01-13T07:49:02.741Z,27.13
2023-01-13T07:51:32.119Z,25.87
2023-01-13T07:54:04.915Z,25.20
2023-01-13T07:56:35.083Z,25.33
2023-01-13T07:59:05.314Z,25.30
2023-01-13T08:01:33.924Z,26.60
2023-01-13T08:04:02.973Z,26.77
2023-01-13T08:06:31.502Z,26.37
2023-01-13T08:09:01.818Z,25.27
2023-01-13T08:11:30.462Z,25.00
2023-01-13T08:13:59.669Z,22.83
2023-01-13T08:16:29.587Z,24.97
2023-01-13T08:19:00.432Z,24.97
2023-01-13T08:21:28.973Z,24.73
2023-01-13T08:23:57.685Z,27.30
2023-01-13T08:26:27.801Z,29.23
2023-01-13T08:28:58.708Z,24.37
2023-01-13T08:31:27.384Z,25.10
2023-01-13T08:33:57.484Z,23.97
2023-01-13T08:36:26.326Z,25.10
2023-01-13T08:38:54.735Z,27.00
2023-01-13T08:41:37.075Z,23.47
2023-01-13T08:44:06.803Z,24.10
2023-01-13T08:46:35.681Z,25.07
2023-01-13T08:49:05.766Z,24.27
2023-01-13T08:51:35.341Z,25.50
2023-01-13T08:54:03.828Z,24.93
2023-01-13T08:56:35.292Z,22.80
2023-01-13T08:59:04.428Z,27.80
2023-01-13T09:01:34.116Z,25.40
2023-01-13T09:04:02.772Z,22.53
2023-01-13T09:06:32.887Z,22.83
2023-01-13T09:09:02.501Z,23.70
2023-01-13T09:11:51.571Z,23.83
2023-01-13T09:14:21.896Z,23.70
2023-01-13T09:16:50.380Z,26.27
2023-01-13T09:19:18.900Z,24.60
2023-01-13T09:21:48.767Z,23.43
2023-01-13T09:24:17.254Z,24.40
2023-01-13T09:26:46.248Z,24.87
2023-01-13T09:29:14.945Z,25.20
2023-01-13T09:31:45.420Z,23.03
2023-01-13T09:34:45.406Z,25.60
2023-01-13T09:37:15.261Z,26.70
2023-01-13T09:39:45.022Z,27.07
2023-01-13T09:42:37.892Z,25.97
2023-01-13T09:45:13.326Z,26.87
2023-01-13T09:47:47.570Z,26.03
2023-01-13T09:50:34.159Z,28.50
2023-01-13T09:53:07.696Z,27.57
2023-01-13T09:55:37.872Z,28.87
2023-01-13T09:58:13.493Z,27.17
2023-01-13T10:00:47.334Z,28.33
2023-01-13T10:03:25.420Z,29.43
2023-01-13T10:06:04.688Z,28.00
2023-01-13T10:08:38.415Z,28.87
2023-01-13T10:11:36.019Z,30.50
2023-01-13T10:14:13.715Z,28.30
2023-01-13T10:16:49.521Z,27.70
2023-01-13T10:19:26.844Z,27.57
2023-01-13T10:22:13.166Z,29.37
2023-01-13T10:25:18.233Z,26.10
2023-01-13T10:27:52.597Z,26.87
2023-01-13T10:30:27.789Z,26.43
2023-01-13T10:32:58.826Z,26.57
2023-01-13T10:35:52.424Z,26.43
2023-01-13T10:38:23.361Z,26.60
2023-01-13T10:40:55.693Z,25.73
2023-01-13T10:43:25.388Z,24.83
2023-01-13T10:46:00.771Z,24.70
2023-01-13T10:48:42.092Z,27.83
2023-01-13T10:51:24.837Z,29.70
2023-01-13T10:53:57.316Z,29.50
2023-01-13T10:56:30.342Z,28.67
2023-01-13T10:59:16.999Z,28.63
2023-01-13T11:01:59.667Z,29.60
2023-01-13T11:04:32.164Z,31.70
2023-01-13T11:07:03.973Z,29.73
2023-01-13T11:09:34.392Z,29.80
2023-01-13T11:12:05.803Z,31.97
2023-01-13T11:14:43.183Z,32.00
2023-01-13T11:17:39.856Z,29.60
2023-01-13T11:20:22.131Z,30.20
2023-01-13T11:22:56.253Z,29.03
2023-01-13T11:25:33.160Z,32.03
2023-01-13T11:28:13.235Z,30.23
2023-01-13T11:30:52.559Z,28.30
2023-01-13T11:33:34.304Z,28.07
2023-01-13T11:36:09.226Z,28.90
2023-01-13T11:38:46.224Z,29.20
2023-01-13T11:41:29.662Z,29.13
2023-01-13T11:44:09.236Z,29.47
2023-01-13T11:46:38.182Z,30.63
2023-01-13T11:49:07.478Z,30.73
2023-01-13T11:51:41.611Z,29.43
2023-01-13T11:54:36.642Z,28.87
2023-01-13T11:57:32.399Z,29.10
2023-01-13T12:00:22.177Z,29.67
2023-01-13T12:03:03.000Z,29.63
2023-01-13T12:05:37.753Z,28.30
2023-01-13T12:08:18.968Z,28.17
2023-01-13T12:11:02.452Z,28.50
2023-01-13T12:13:41.470Z,24.93
2023-01-13T12:16:24.628Z,27.37
2023-01-13T12:19:27.960Z,27.70
2023-01-13T12:22:13.169Z,27.27
2023-01-13T12:24:49.349Z,25.77
2023-01-13T12:27:25.463Z,25.10
2023-01-13T12:29:58.327Z,24.53
2023-01-13T12:32:34.647Z,25.97
2023-01-13T12:35:20.828Z,31.00
2023-01-13T12:37:55.707Z,31.87
2023-01-13T12:40:41.324Z,32.40
2023-01-13T12:43:47.084Z,35.47
2023-01-13T12:46:55.976Z,36.40
2023-01-13T12:49:28.823Z,36.03
2023-01-13T12:52:20.432Z,36.33
2023-01-13T12:55:20.039Z,35.70
2023-01-13T12:58:00.149Z,34.03
2023-01-13T13:00:38.086Z,35.90
2023-01-13T13:03:31.401Z,37.10
2023-01-13T13:06:13.819Z,36.70
2023-01-13T13:09:03.330Z,38.00
2023-01-13T13:11:58.800Z,40.73
2023-01-13T13:15:03.791Z,38.37
2023-01-13T13:18:00.162Z,39.37
2023-01-13T13:20:55.403Z,41.67
2023-01-13T13:24:05.817Z,42.50
2023-01-13T13:26:45.843Z,43.77
2023-01-13T13:29:40.561Z,44.37
2023-01-13T13:32:34.027Z,43.97
2023-01-13T13:35:37.007Z,44.67
2023-01-13T13:38:36.987Z,41.93
2023-01-13T13:41:30.829Z,36.07
2023-01-13T13:44:21.794Z,34.40
2023-01-13T13:46:50.603Z,35.53
2023-01-13T13:49:21.377Z,35.30
2023-01-13T13:51:57.725Z,37.90
2023-01-13T13:54:26.445Z,39.23
2023-01-13T13:56:56.507Z,37.47
2023-01-13T13:59:29.561Z,37.77
2023-01-13T14:02:03.772Z,37.57
2023-01-13T14:04:35.620Z,37.27
2023-01-13T14:07:16.142Z,37.20
2023-01-13T14:09:47.896Z,34.23
2023-01-13T14:12:23.068Z,34.77
2023-01-13T14:14:56.863Z,30.60
2023-01-13T14:17:27.120Z,32.93
2023-01-13T14:20:00.306Z,32.30
2023-01-13T14:22:29.010Z,31.30
2023-01-13T14:24:58.097Z,33.77
2023-01-13T14:27:30.393Z,31.90
2023-01-13T14:30:01.574Z,34.27
2023-01-13T14:32:34.756Z,33.60
2023-01-13T14:35:06.691Z,36.87
2023-01-13T14:37:39.105Z,39.70
2023-01-13T14:40:28.388Z,42.53
2023-01-13T14:43:04.009Z,42.43
2023-01-13T14:45:33.227Z,45.83
2023-01-13T14:48:03.532Z,44.20
2023-01-13T14:50:34.702Z,43.33
2023-01-13T14:53:05.008Z,42.57
2023-01-13T14:55:36.396Z,44.40
2023-01-13T14:58:26.170Z,41.70
2023-01-13T15:01:30.044Z,41.10
2023-01-13T15:04:17.652Z,40.70
2023-01-13T15:06:52.168Z,40.57
2023-01-13T15:09:25.916Z,40.73
2023-01-13T15:11:55.047Z,39.00
2023-01-13T15:14:27.962Z,38.70
2023-01-13T15:16:57.505Z,37.97
2023-01-13T15:19:25.981Z,40.43
2023-01-13T15:21:54.456Z,39.23
2023-01-13T15:24:22.925Z,40.67
2023-01-13T15:26:52.072Z,45.40
2023-01-13T15:29:23.761Z,45.73
2023-01-13T15:31:54.313Z,43.63
2023-01-13T15:34:22.868Z,44.67
2023-01-13T15:36:51.454Z,42.70
2023-01-13T15:39:19.862Z,40.60
2023-01-13T15:42:17.300Z,41.13
2023-01-13T15:45:08.728Z,42.20
2023-01-13T15:47:38.580Z,44.27
2023-01-13T15:50:07.520Z,42.40
2023-01-13T15:52:36.011Z,40.70
2023-01-13T15:55:05.243Z,42.87
2023-01-13T15:57:44.321Z,42.10
2023-01-13T16:00:20.229Z,43.37
2023-01-13T16:02:51.581Z,45.87
2023-01-13T16:05:21.214Z,52.37
2023-01-13T16:07:50.539Z,50.80
2023-01-13T16:10:21.712Z,52.00
2023-01-13T16:12:52.460Z,51.30
2023-01-13T16:15:25.955Z,49.70
2023-01-13T16:18:00.191Z,45.27
2023-01-13T16:20:29.397Z,44.60
2023-01-13T16:22:59.649Z,42.47
2023-01-13T16:25:31.041Z,40.63
2023-01-13T16:27:59.710Z,38.33
2023-01-13T16:30:32.651Z,51.10
2023-01-13T16:33:03.748Z,47.57
2023-01-13T16:35:33.002Z,44.40
2023-01-13T16:38:02.514Z,47.37
2023-01-13T16:40:34.288Z,47.37
2023-01-13T16:43:06.930Z,45.70
2023-01-13T16:45:36.582Z,46.30
2023-01-13T16:48:07.422Z,46.60
2023-01-13T16:50:39.986Z,46.30
2023-01-13T16:53:11.385Z,47.10
2023-01-13T16:55:41.988Z,43.70
2023-01-13T16:58:18.717Z,44.33
2023-01-13T17:00:49.099Z,47.53
2023-01-13T17:03:19.056Z,44.60
2023-01-13T17:05:48.149Z,46.20
2023-01-13T17:08:19.871Z,44.10
2023-01-13T17:10:49.293Z,49.03
2023-01-13T17:13:19.712Z,54.37
2023-01-13T17:15:48.582Z,58.20
2023-01-13T17:18:20.178Z,54.90
2023-01-13T17:20:48.924Z,49.63
2023-01-13T17:23:18.360Z,50.97
2023-01-13T17:25:47.880Z,46.87
2023-01-13T17:28:19.707Z,46.10
2023-01-13T17:30:48.516Z,51.00
2023-01-13T17:33:18.421Z,49.20
2023-01-13T17:35:47.093Z,50.10
2023-01-13T17:38:16.235Z,50.33
2023-01-13T17:40:44.684Z,47.47
2023-01-13T17:43:13.166Z,47.73
2023-01-13T17:45:42.700Z,48.63
2023-01-13T17:48:11.174Z,47.10
2023-01-13T17:50:41.193Z,50.13
2023-01-13T17:53:09.617Z,49.13
2023-01-13T17:55:38.111Z,46.53
2023-01-13T17:58:06.528Z,48.17
2023-01-13T18:00:35.045Z,45.43
2023-01-13T18:03:03.499Z,46.53
2023-01-13T18:05:34.077Z,45.43
2023-01-13T18:08:04.174Z,44.33
2023-01-13T18:10:34.464Z,46.00
2023-01-13T18:13:06.504Z,45.60
2023-01-13T18:15:35.614Z,46.43
2023-01-13T18:18:04.217Z,44.97
2023-01-13T18:20:50.164Z,42.30
2023-01-13T18:23:38.693Z,48.07
2023-01-13T18:26:34.828Z,51.83
2023-01-13T18:29:03.516Z,49.87
2023-01-13T18:31:33.030Z,54.73
2023-01-13T18:34:01.633Z,53.70
2023-01-13T18:36:30.121Z,52.20
2023-01-13T18:39:03.504Z,54.13
2023-01-13T18:41:49.945Z,54.00
2023-01-13T18:44:21.498Z,52.57
2023-01-13T18:46:52.770Z,48.80
2023-01-13T18:49:21.202Z,48.83
2023-01-13T18:51:49.711Z,51.00
2023-01-13T18:54:20.167Z,51.25
2023-01-13T18:56:49.474Z,53.53
2023-01-13T18:59:18.349Z,51.30
2023-01-13T19:01:46.866Z,53.57
2023-01-13T19:04:16.689Z,51.00
2023-01-13T19:06:49.215Z,51.30
2023-01-13T19:09:20.039Z,49.90
2023-01-13T19:11:48.462Z,50.67
2023-01-13T19:14:34.223Z,49.67
2023-01-13T19:17:04.484Z,48.30
2023-01-13T19:19:33.202Z,53.30
2023-01-13T19:22:01.795Z,52.03
2023-01-13T19:24:32.419Z,52.20
2023-01-13T19:27:00.908Z,52.13
2023-01-13T19:29:33.162Z,48.70
2023-01-13T19:32:02.324Z,52.10
2023-01-13T19:34:31.104Z,51.00
2023-01-13T19:37:00.296Z,52.60
2023-01-13T19:39:28.744Z,52.70
2023-01-13T19:42:16.121Z,52.73
2023-01-13T19:45:01.913Z,49.90
2023-01-13T19:47:32.100Z,50.90
2023-01-13T19:50:03.582Z,52.73
2023-01-13T19:52:32.161Z,50.20
2023-01-13T19:55:00.634Z,52.50
2023-01-13T19:57:30.919Z,52.93
2023-01-13T19:59:59.475Z,51.20
2023-01-13T20:02:31.737Z,50.90
2023-01-13T20:05:02.057Z,48.73
2023-01-13T20:07:33.611Z,48.00
2023-01-13T20:10:02.733Z,50.53
2023-01-13T20:12:32.619Z,47.37
2023-01-13T20:15:01.176Z,52.73
2023-01-13T20:17:30.791Z,50.83
2023-01-13T20:20:02.410Z,48.13
2023-01-13T20:22:31.398Z,52.80
2023-01-13T20:24:59.941Z,46.80
2023-01-13T20:27:29.801Z,47.10
2023-01-13T20:30:00.162Z,49.80
2023-01-13T20:32:31.888Z,49.93
2023-01-13T20:35:00.723Z,51.10
2023-01-13T20:37:32.295Z,49.10
2023-01-13T20:40:03.283Z,47.00
2023-01-13T20:42:32.056Z,47.60
2023-01-13T20:45:02.924Z,48.07
2023-01-13T20:47:33.133Z,49.60
2023-01-13T20:50:04.597Z,48.80
2023-01-13T20:52:34.171Z,49.83
2023-01-13T20:55:08.508Z,45.03
2023-01-13T20:57:42.825Z,47.40
2023-01-13T21:00:15.925Z,47.13
2023-01-13T21:02:44.957Z,46.70
2023-01-13T21:05:15.078Z,47.60
2023-01-13T21:07:44.058Z,45.60
2023-01-13T21:10:13.189Z,46.97
2023-01-13T21:13:00.327Z,46.37
2023-01-13T21:15:30.616Z,47.20
2023-01-13T21:18:18.132Z,48.90
2023-01-13T21:20:46.974Z,48.10
2023-01-13T21:23:16.468Z,47.20
2023-01-13T21:25:45.243Z,47.20
2023-01-13T21:28:16.075Z,44.70
2023-01-13T21:30:47.240Z,46.10
2023-01-13T21:33:15.664Z,44.00
2023-01-13T21:35:44.137Z,46.47
2023-01-13T21:38:13.667Z,46.40
2023-01-13T21:40:42.149Z,45.43
2023-01-13T21:43:30.801Z,45.80
2023-01-13T21:46:18.066Z,47.47
2023-01-13T21:48:46.559Z,47.40
2023-01-13T21:51:15.119Z,49.40
2023-01-13T21:53:43.534Z,50.37
2023-01-13T21:56:11.947Z,47.07
2023-01-13T21:58:40.432Z,47.03
2023-01-13T22:01:11.974Z,46.03
2023-01-13T22:03:59.002Z,45.57
2023-01-13T22:06:27.840Z,45.60
2023-01-13T22:08:59.904Z,46.70
2023-01-13T22:11:28.760Z,51.80
2023-01-13T22:14:10.184Z,48.63
2023-01-13T22:16:49.146Z,49.10
2023-01-13T22:19:18.187Z,45.57
2023-01-13T22:21:47.054Z,47.20
2023-01-13T22:24:16.391Z,43.87
2023-01-13T22:26:44.932Z,42.97
2023-01-13T22:29:15.756Z,41.67
2023-01-13T22:31:45.627Z,41.50
2023-01-13T22:34:14.215Z,42.67
2023-01-13T22:36:42.715Z,38.10
2023-01-13T22:39:12.288Z,40.10
2023-01-13T22:41:40.697Z,38.93
2023-01-13T22:44:09.216Z,38.00
2023-01-13T22:46:37.707Z,38.00
2023-01-13T22:49:07.547Z,41.83
2023-01-13T22:51:36.008Z,37.80
2023-01-13T22:54:04.554Z,38.83
2023-01-13T22:56:33.475Z,34.50
2023-01-13T22:59:03.469Z,37.27
2023-01-13T23:01:33.451Z,37.17
2023-01-13T23:04:02.613Z,36.27
2023-01-13T23:06:35.596Z,36.30
2023-01-13T23:09:04.082Z,35.13
2023-01-13T23:11:33.039Z,34.67
2023-01-13T23:14:05.791Z,34.60
2023-01-13T23:16:37.459Z,33.50
2023-01-13T23:19:09.462Z,33.90
2023-01-13T23:21:39.615Z,33.90
2023-01-13T23:24:08.977Z,34.10
2023-01-13T23:26:37.913Z,33.97
2023-01-13T23:29:08.281Z,33.83
2023-01-13T23:31:36.964Z,32.20
2023-01-13T23:34:05.392Z,29.10
2023-01-13T23:36:37.191Z,28.80
2023-01-13T23:39:08.163Z,30.13
2023-01-13T23:41:36.569Z,31.30
2023-01-13T23:44:05.012Z,29.40
2023-01-13T23:46:35.268Z,28.43
2023-01-13T23:49:04.599Z,30.30
2023-01-13T23:51:33.413Z,27.50
2023-01-13T23:54:03.861Z,27.60
2023-01-13T23:56:39.349Z,28.50
2023-01-13T23:59:07.990Z,28.87
